sensor_id;sensor_type;location;lat;lon;timestamp;temperature;humidity
77519;DHT22;66629;47.346;19.038;2023-03-31T00:01:59;10.63;96.67
77519;DHT22;66629;47.346;19.038;2023-03-31T00:04:26;10.60;96.64
77519;DHT22;66629;47.346;19.038;2023-03-31T00:06:52;10.62;96.47
77519;DHT22;66629;47.346;19.038;2023-03-31T00:09:18;10.63;96.29
77519;DHT22;66629;47.346;19.038;2023-03-31T00:11:47;10.60;96.13
77519;DHT22;66629;47.346;19.038;2023-03-31T00:14:13;10.63;96.09
77519;DHT22;66629;47.346;19.038;2023-03-31T00:16:40;10.59;96.07
77519;DHT22;66629;47.346;19.038;2023-03-31T00:19:05;10.60;96.05
77519;DHT22;66629;47.346;19.038;2023-03-31T00:21:34;10.59;95.94
77519;DHT22;66629;47.346;19.038;2023-03-31T00:24:05;10.52;96.19
77519;DHT22;66629;47.346;19.038;2023-03-31T00:26:32;10.48;96.25
77519;DHT22;66629;47.346;19.038;2023-03-31T00:28:58;10.45;96.27
77519;DHT22;66629;47.346;19.038;2023-03-31T00:31:24;10.41;96.24
77519;DHT22;66629;47.346;19.038;2023-03-31T00:33:52;10.41;96.43
77519;DHT22;66629;47.346;19.038;2023-03-31T00:36:18;10.41;96.39
77519;DHT22;66629;47.346;19.038;2023-03-31T00:38:55;10.41;96.33
77519;DHT22;66629;47.346;19.038;2023-03-31T00:41:24;10.39;96.27
77519;DHT22;66629;47.346;19.038;2023-03-31T00:44:18;10.39;96.43
77519;DHT22;66629;47.346;19.038;2023-03-31T00:49:27;10.34;96.30
77519;DHT22;66629;47.346;19.038;2023-03-31T00:51:56;10.34;96.22
77519;DHT22;66629;47.346;19.038;2023-03-31T00:54:24;10.28;96.34
77519;DHT22;66629;47.346;19.038;2023-03-31T00:56:52;10.25;96.35
77519;DHT22;66629;47.346;19.038;2023-03-31T00:59:22;10.24;96.39
77519;DHT22;66629;47.346;19.038;2023-03-31T01:01:50;10.18;96.52
77519;DHT22;66629;47.346;19.038;2023-03-31T01:04:17;10.13;96.57
77519;DHT22;66629;47.346;19.038;2023-03-31T01:07:02;10.10;96.66
77519;DHT22;66629;47.346;19.038;2023-03-31T01:09:29;10.07;96.86
77519;DHT22;66629;47.346;19.038;2023-03-31T01:11:55;10.01;96.83
77519;DHT22;66629;47.346;19.038;2023-03-31T01:14:20;10.00;96.73
77519;DHT22;66629;47.346;19.038;2023-03-31T01:16:46;10.00;96.80
77519;DHT22;66629;47.346;19.038;2023-03-31T01:19:38;9.93;96.68
77519;DHT22;66629;47.346;19.038;2023-03-31T01:22:38;9.89;97.08
77519;DHT22;66629;47.346;19.038;2023-03-31T01:33:14;9.85;96.89
77519;DHT22;66629;47.346;19.038;2023-03-31T01:38:14;9.85;96.71
77519;DHT22;66629;47.346;19.038;2023-03-31T01:46:01;9.78;96.50
77519;DHT22;66629;47.346;19.038;2023-03-31T01:51:32;9.72;96.26
77519;DHT22;66629;47.346;19.038;2023-03-31T01:54:28;9.68;96.33
77519;DHT22;66629;47.346;19.038;2023-03-31T02:00:06;9.59;96.20
77519;DHT22;66629;47.346;19.038;2023-03-31T02:03:03;9.58;96.10
77519;DHT22;66629;47.346;19.038;2023-03-31T02:05:34;9.58;95.95
77519;DHT22;66629;47.346;19.038;2023-03-31T02:08:14;9.56;95.67
77519;DHT22;66629;47.346;19.038;2023-03-31T02:10:41;9.58;95.59
77519;DHT22;66629;47.346;19.038;2023-03-31T02:13:08;9.54;95.48
77519;DHT22;66629;47.346;19.038;2023-03-31T02:15:38;9.52;95.41
77519;DHT22;66629;47.346;19.038;2023-03-31T02:18:07;9.55;95.15
77519;DHT22;66629;47.346;19.038;2023-03-31T02:20:38;9.49;95.04
77519;DHT22;66629;47.346;19.038;2023-03-31T02:23:07;9.49;94.90
77519;DHT22;66629;47.346;19.038;2023-03-31T02:25:39;9.44;94.87
77519;DHT22;66629;47.346;19.038;2023-03-31T02:28:13;9.41;94.86
77519;DHT22;66629;47.346;19.038;2023-03-31T02:30:50;9.40;94.74
77519;DHT22;66629;47.346;19.038;2023-03-31T02:33:16;9.35;94.72
77519;DHT22;66629;47.346;19.038;2023-03-31T02:35:42;9.32;94.65
77519;DHT22;66629;47.346;19.038;2023-03-31T02:38:07;9.28;94.87
77519;DHT22;66629;47.346;19.038;2023-03-31T02:40:33;9.20;95.04
77519;DHT22;66629;47.346;19.038;2023-03-31T02:42:59;9.14;94.82
77519;DHT22;66629;47.346;19.038;2023-03-31T02:45:44;9.10;94.93
77519;DHT22;66629;47.346;19.038;2023-03-31T02:48:34;9.05;94.84
77519;DHT22;66629;47.346;19.038;2023-03-31T03:02:34;8.61;94.22
77519;DHT22;66629;47.346;19.038;2023-03-31T03:05:21;8.57;93.79
77519;DHT22;66629;47.346;19.038;2023-03-31T03:15:48;8.28;95.46
77519;DHT22;66629;47.346;19.038;2023-03-31T03:18:15;8.29;95.95
77519;DHT22;66629;47.346;19.038;2023-03-31T03:20:42;8.34;95.93
77519;DHT22;66629;47.346;19.038;2023-03-31T03:23:07;8.28;95.69
77519;DHT22;66629;47.346;19.038;2023-03-31T03:25:33;8.30;95.53
77519;DHT22;66629;47.346;19.038;2023-03-31T03:27:59;8.30;95.43
77519;DHT22;66629;47.346;19.038;2023-03-31T03:30:24;8.23;95.44
77519;DHT22;66629;47.346;19.038;2023-03-31T03:32:50;8.23;95.57
77519;DHT22;66629;47.346;19.038;2023-03-31T03:35:15;8.19;95.75
77519;DHT22;66629;47.346;19.038;2023-03-31T03:37:41;8.14;95.77
77519;DHT22;66629;47.346;19.038;2023-03-31T03:40:07;8.09;95.87
77519;DHT22;66629;47.346;19.038;2023-03-31T03:42:33;8.07;95.99
77519;DHT22;66629;47.346;19.038;2023-03-31T03:44:59;8.07;96.31
77519;DHT22;66629;47.346;19.038;2023-03-31T03:47:26;8.03;96.28
77519;DHT22;66629;47.346;19.038;2023-03-31T03:49:51;8.05;96.55
77519;DHT22;66629;47.346;19.038;2023-03-31T03:52:16;8.05;96.58
77519;DHT22;66629;47.346;19.038;2023-03-31T03:54:42;8.06;96.62
77519;DHT22;66629;47.346;19.038;2023-03-31T03:57:07;8.09;96.64
77519;DHT22;66629;47.346;19.038;2023-03-31T03:59:33;8.07;96.61
77519;DHT22;66629;47.346;19.038;2023-03-31T04:01:58;8.07;96.61
77519;DHT22;66629;47.346;19.038;2023-03-31T04:04:24;8.06;96.46
77519;DHT22;66629;47.346;19.038;2023-03-31T04:06:49;8.02;96.63
77519;DHT22;66629;47.346;19.038;2023-03-31T04:09:15;7.99;96.40
77519;DHT22;66629;47.346;19.038;2023-03-31T04:11:40;7.98;96.35
77519;DHT22;66629;47.346;19.038;2023-03-31T04:14:06;7.91;96.06
77519;DHT22;66629;47.346;19.038;2023-03-31T04:16:31;7.91;96.31
77519;DHT22;66629;47.346;19.038;2023-03-31T04:18:59;7.87;96.15
77519;DHT22;66629;47.346;19.038;2023-03-31T04:21:28;7.85;96.33
77519;DHT22;66629;47.346;19.038;2023-03-31T04:23:55;7.87;96.66
77519;DHT22;66629;47.346;19.038;2023-03-31T04:26:28;7.84;96.92
77519;DHT22;66629;47.346;19.038;2023-03-31T04:29:07;7.82;96.90
77519;DHT22;66629;47.346;19.038;2023-03-31T04:31:33;7.85;97.14
77519;DHT22;66629;47.346;19.038;2023-03-31T04:34:03;7.85;97.01
77519;DHT22;66629;47.346;19.038;2023-03-31T04:36:32;7.79;96.57
77519;DHT22;66629;47.346;19.038;2023-03-31T04:38:57;7.71;96.22
77519;DHT22;66629;47.346;19.038;2023-03-31T04:41:24;7.64;95.83
77519;DHT22;66629;47.346;19.038;2023-03-31T04:43:52;7.64;95.73
77519;DHT22;66629;47.346;19.038;2023-03-31T04:46:18;7.61;96.40
77519;DHT22;66629;47.346;19.038;2023-03-31T04:48:43;7.64;96.48
77519;DHT22;66629;47.346;19.038;2023-03-31T04:51:09;7.59;96.42
77519;DHT22;66629;47.346;19.038;2023-03-31T04:53:34;7.54;96.38
77519;DHT22;66629;47.346;19.038;2023-03-31T04:56:01;7.54;96.37
77519;DHT22;66629;47.346;19.038;2023-03-31T04:58:26;7.60;97.05
77519;DHT22;66629;47.346;19.038;2023-03-31T05:00:52;7.77;96.93
77519;DHT22;66629;47.346;19.038;2023-03-31T05:03:18;8.13;96.35
77519;DHT22;66629;47.346;19.038;2023-03-31T05:05:44;8.48;95.29
77519;DHT22;66629;47.346;19.038;2023-03-31T05:08:09;8.79;94.13
77519;DHT22;66629;47.346;19.038;2023-03-31T05:10:35;9.17;93.29
77519;DHT22;66629;47.346;19.038;2023-03-31T05:13:01;9.51;92.97
77519;DHT22;66629;47.346;19.038;2023-03-31T05:15:26;9.82;91.91
77519;DHT22;66629;47.346;19.038;2023-03-31T05:17:52;10.15;91.07
77519;DHT22;66629;47.346;19.038;2023-03-31T05:20:18;10.44;90.11
77519;DHT22;66629;47.346;19.038;2023-03-31T05:22:44;10.63;88.69
77519;DHT22;66629;47.346;19.038;2023-03-31T05:25:10;10.89;87.27
77519;DHT22;66629;47.346;19.038;2023-03-31T05:27:38;11.01;87.02
77519;DHT22;66629;47.346;19.038;2023-03-31T05:30:04;11.33;86.17
77519;DHT22;66629;47.346;19.038;2023-03-31T05:32:30;11.56;85.50
77519;DHT22;66629;47.346;19.038;2023-03-31T05:34:55;11.71;84.89
77519;DHT22;66629;47.346;19.038;2023-03-31T05:37:24;12.01;83.74
77519;DHT22;66629;47.346;19.038;2023-03-31T05:39:51;12.05;83.84
77519;DHT22;66629;47.346;19.038;2023-03-31T05:42:17;12.33;82.03
77519;DHT22;66629;47.346;19.038;2023-03-31T05:44:42;12.25;81.13
77519;DHT22;66629;47.346;19.038;2023-03-31T05:47:08;12.46;81.23
77519;DHT22;66629;47.346;19.038;2023-03-31T05:49:33;12.84;80.73
77519;DHT22;66629;47.346;19.038;2023-03-31T05:51:59;12.85;79.01
77519;DHT22;66629;47.346;19.038;2023-03-31T05:54:25;13.12;79.29
77519;DHT22;66629;47.346;19.038;2023-03-31T05:56:51;13.42;79.47
77519;DHT22;66629;47.346;19.038;2023-03-31T05:59:17;13.34;78.49
77519;DHT22;66629;47.346;19.038;2023-03-31T06:01:42;13.58;78.92
77519;DHT22;66629;47.346;19.038;2023-03-31T06:04:08;13.67;77.17
77519;DHT22;66629;47.346;19.038;2023-03-31T06:06:33;13.58;77.30
77519;DHT22;66629;47.346;19.038;2023-03-31T06:08:59;13.40;78.03
77519;DHT22;66629;47.346;19.038;2023-03-31T06:11:25;13.13;78.51
77519;DHT22;66629;47.346;19.038;2023-03-31T06:13:50;13.76;77.26
77519;DHT22;66629;47.346;19.038;2023-03-31T06:16:16;13.95;75.95
77519;DHT22;66629;47.346;19.038;2023-03-31T06:18:42;14.12;75.23
77519;DHT22;66629;47.346;19.038;2023-03-31T06:21:14;14.36;76.01
77519;DHT22;66629;47.346;19.038;2023-03-31T06:23:41;14.41;74.60
77519;DHT22;66629;47.346;19.038;2023-03-31T06:26:15;14.79;73.10
77519;DHT22;66629;47.346;19.038;2023-03-31T06:28:42;14.80;72.22
77519;DHT22;66629;47.346;19.038;2023-03-31T06:31:10;14.75;71.65
77519;DHT22;66629;47.346;19.038;2023-03-31T06:33:37;14.31;73.24
77519;DHT22;66629;47.346;19.038;2023-03-31T06:36:04;14.67;72.13
77519;DHT22;66629;47.346;19.038;2023-03-31T06:38:31;15.04;71.37
77519;DHT22;66629;47.346;19.038;2023-03-31T06:40:57;14.79;72.12
77519;DHT22;66629;47.346;19.038;2023-03-31T06:57:58;14.71;73.42
77519;DHT22;66629;47.346;19.038;2023-03-31T07:00:24;15.10;72.60
77519;DHT22;66629;47.346;19.038;2023-03-31T07:02:51;15.21;72.38
77519;DHT22;66629;47.346;19.038;2023-03-31T07:05:17;15.59;71.06
77519;DHT22;66629;47.346;19.038;2023-03-31T07:07:43;16.20;70.47
77519;DHT22;66629;47.346;19.038;2023-03-31T07:10:09;16.63;69.56
77519;DHT22;66629;47.346;19.038;2023-03-31T07:12:35;16.11;68.40
77519;DHT22;66629;47.346;19.038;2023-03-31T07:15:00;16.55;67.41
77519;DHT22;66629;47.346;19.038;2023-03-31T07:17:26;15.98;68.06
77519;DHT22;66629;47.346;19.038;2023-03-31T07:19:51;16.46;68.07
77519;DHT22;66629;47.346;19.038;2023-03-31T07:22:17;16.56;66.74
77519;DHT22;66629;47.346;19.038;2023-03-31T07:24:42;16.85;67.77
77519;DHT22;66629;47.346;19.038;2023-03-31T07:27:08;16.67;66.55
77519;DHT22;66629;47.346;19.038;2023-03-31T07:29:33;16.92;66.63
77519;DHT22;66629;47.346;19.038;2023-03-31T07:31:59;16.77;67.41
77519;DHT22;66629;47.346;19.038;2023-03-31T07:34:24;16.92;65.84
77519;DHT22;66629;47.346;19.038;2023-03-31T07:36:50;16.88;66.97
77519;DHT22;66629;47.346;19.038;2023-03-31T07:39:15;17.32;64.68
77519;DHT22;66629;47.346;19.038;2023-03-31T07:41:41;17.59;64.41
77519;DHT22;66629;47.346;19.038;2023-03-31T07:44:06;18.02;61.00
77519;DHT22;66629;47.346;19.038;2023-03-31T07:46:32;18.21;63.62
77519;DHT22;66629;47.346;19.038;2023-03-31T07:48:57;18.25;62.01
77519;DHT22;66629;47.346;19.038;2023-03-31T07:51:25;18.17;61.88
77519;DHT22;66629;47.346;19.038;2023-03-31T07:53:51;18.12;62.93
77519;DHT22;66629;47.346;19.038;2023-03-31T07:56:19;18.56;62.36
77519;DHT22;66629;47.346;19.038;2023-03-31T07:58:46;17.23;63.89
77519;DHT22;66629;47.346;19.038;2023-03-31T08:01:15;17.66;64.28
77519;DHT22;66629;47.346;19.038;2023-03-31T08:03:44;18.36;62.98
77519;DHT22;66629;47.346;19.038;2023-03-31T08:06:11;18.48;62.34
77519;DHT22;66629;47.346;19.038;2023-03-31T08:08:37;18.89;61.86
77519;DHT22;66629;47.346;19.038;2023-03-31T08:11:07;18.48;61.05
77519;DHT22;66629;47.346;19.038;2023-03-31T08:13:33;18.17;63.22
77519;DHT22;66629;47.346;19.038;2023-03-31T08:15:58;18.57;61.88
77519;DHT22;66629;47.346;19.038;2023-03-31T08:18:23;18.23;62.95
77519;DHT22;66629;47.346;19.038;2023-03-31T08:20:49;18.34;61.92
77519;DHT22;66629;47.346;19.038;2023-03-31T08:23:15;18.29;63.42
77519;DHT22;66629;47.346;19.038;2023-03-31T08:25:40;18.47;62.51
77519;DHT22;66629;47.346;19.038;2023-03-31T08:28:06;18.82;62.07
77519;DHT22;66629;47.346;19.038;2023-03-31T08:30:36;19.23;61.00
77519;DHT22;66629;47.346;19.038;2023-03-31T08:33:01;18.98;61.24
77519;DHT22;66629;47.346;19.038;2023-03-31T08:35:27;18.92;61.67
77519;DHT22;66629;47.346;19.038;2023-03-31T08:37:52;19.00;61.14
77519;DHT22;66629;47.346;19.038;2023-03-31T08:40:21;19.22;60.76
77519;DHT22;66629;47.346;19.038;2023-03-31T08:42:52;19.06;59.97
77519;DHT22;66629;47.346;19.038;2023-03-31T08:45:42;18.91;61.51
77519;DHT22;66629;47.346;19.038;2023-03-31T08:48:20;19.38;59.48
77519;DHT22;66629;47.346;19.038;2023-03-31T08:50:53;19.19;58.23
77519;DHT22;66629;47.346;19.038;2023-03-31T08:53:42;19.79;59.56
77519;DHT22;66629;47.346;19.038;2023-03-31T08:56:15;19.58;59.84
77519;DHT22;66629;47.346;19.038;2023-03-31T08:58:46;19.62;58.67
77519;DHT22;66629;47.346;19.038;2023-03-31T09:12:33;19.96;57.71
77519;DHT22;66629;47.346;19.038;2023-03-31T09:15:01;20.41;57.01
77519;DHT22;66629;47.346;19.038;2023-03-31T09:17:36;20.25;56.60
77519;DHT22;66629;47.346;19.038;2023-03-31T09:20:11;19.82;58.69
77519;DHT22;66629;47.346;19.038;2023-03-31T09:22:43;19.27;59.61
77519;DHT22;66629;47.346;19.038;2023-03-31T09:27:42;19.40;60.05
77519;DHT22;66629;47.346;19.038;2023-03-31T09:32:37;19.31;58.47
77519;DHT22;66629;47.346;19.038;2023-03-31T09:35:21;19.34;57.46
77519;DHT22;66629;47.346;19.038;2023-03-31T09:37:48;19.61;58.44
77519;DHT22;66629;47.346;19.038;2023-03-31T09:40:16;19.61;59.53
77519;DHT22;66629;47.346;19.038;2023-03-31T09:42:43;19.96;58.90
77519;DHT22;66629;47.346;19.038;2023-03-31T09:45:17;20.09;57.55
77519;DHT22;66629;47.346;19.038;2023-03-31T09:47:47;20.48;55.40
77519;DHT22;66629;47.346;19.038;2023-03-31T09:50:14;20.59;56.70
77519;DHT22;66629;47.346;19.038;2023-03-31T09:52:43;20.66;55.33
77519;DHT22;66629;47.346;19.038;2023-03-31T09:55:22;20.53;55.12
77519;DHT22;66629;47.346;19.038;2023-03-31T09:57:48;20.44;55.62
77519;DHT22;66629;47.346;19.038;2023-03-31T10:00:16;20.53;54.69
77519;DHT22;66629;47.346;19.038;2023-03-31T10:05:28;19.87;57.19
77519;DHT22;66629;47.346;19.038;2023-03-31T10:10:49;21.03;55.94
77519;DHT22;66629;47.346;19.038;2023-03-31T10:13:18;21.46;55.66
77519;DHT22;66629;47.346;19.038;2023-03-31T10:15:44;21.18;56.55
77519;DHT22;66629;47.346;19.038;2023-03-31T10:18:17;21.01;56.97
77519;DHT22;66629;47.346;19.038;2023-03-31T10:20:48;20.76;56.58
77519;DHT22;66629;47.346;19.038;2023-03-31T10:23:16;20.48;56.73
77519;DHT22;66629;47.346;19.038;2023-03-31T10:25:44;20.20;58.02
77519;DHT22;66629;47.346;19.038;2023-03-31T10:28:14;20.10;58.96
77519;DHT22;66629;47.346;19.038;2023-03-31T10:30:50;20.00;59.06
77519;DHT22;66629;47.346;19.038;2023-03-31T10:33:23;19.44;59.98
77519;DHT22;66629;47.346;19.038;2023-03-31T10:36:13;19.40;58.51
77519;DHT22;66629;47.346;19.038;2023-03-31T10:38:43;19.50;59.94
77519;DHT22;66629;47.346;19.038;2023-03-31T10:41:10;19.17;59.72
77519;DHT22;66629;47.346;19.038;2023-03-31T10:43:42;19.76;58.16
77519;DHT22;66629;47.346;19.038;2023-03-31T10:46:08;19.72;57.89
77519;DHT22;66629;47.346;19.038;2023-03-31T10:48:36;19.64;58.07
77519;DHT22;66629;47.346;19.038;2023-03-31T10:53:49;20.23;58.17
77519;DHT22;66629;47.346;19.038;2023-03-31T11:21:06;21.27;54.78
77519;DHT22;66629;47.346;19.038;2023-03-31T11:23:43;20.61;55.04
77519;DHT22;66629;47.346;19.038;2023-03-31T11:31:36;20.69;53.71
77519;DHT22;66629;47.346;19.038;2023-03-31T11:34:20;20.56;55.81
77519;DHT22;66629;47.346;19.038;2023-03-31T11:37:11;20.40;55.40
77519;DHT22;66629;47.346;19.038;2023-03-31T11:42:54;20.14;56.41
77519;DHT22;66629;47.346;19.038;2023-03-31T11:45:37;20.10;57.91
77519;DHT22;66629;47.346;19.038;2023-03-31T11:48:05;19.87;56.87
77519;DHT22;66629;47.346;19.038;2023-03-31T11:50:35;19.81;57.75
77519;DHT22;66629;47.346;19.038;2023-03-31T11:53:10;19.79;57.39
77519;DHT22;66629;47.346;19.038;2023-03-31T11:55:37;20.41;58.34
77519;DHT22;66629;47.346;19.038;2023-03-31T11:58:13;20.59;56.10
77519;DHT22;66629;47.346;19.038;2023-03-31T12:00:48;20.58;56.11
77519;DHT22;66629;47.346;19.038;2023-03-31T12:03:37;20.45;55.85
77519;DHT22;66629;47.346;19.038;2023-03-31T12:06:12;20.17;57.74
77519;DHT22;66629;47.346;19.038;2023-03-31T12:11:45;20.06;57.29
77519;DHT22;66629;47.346;19.038;2023-03-31T12:16:48;20.20;57.45
77519;DHT22;66629;47.346;19.038;2023-03-31T12:19:29;20.79;57.06
77519;DHT22;66629;47.346;19.038;2023-03-31T12:22:10;21.41;57.01
77519;DHT22;66629;47.346;19.038;2023-03-31T12:24:39;21.30;53.70
77519;DHT22;66629;47.346;19.038;2023-03-31T12:27:59;21.12;54.33
77519;DHT22;66629;47.346;19.038;2023-03-31T12:32:44;20.82;54.60
77519;DHT22;66629;47.346;19.038;2023-03-31T12:35:15;21.00;54.93
77519;DHT22;66629;47.346;19.038;2023-03-31T12:48:56;21.15;54.87
77519;DHT22;66629;47.346;19.038;2023-03-31T12:56:25;20.47;55.09
77519;DHT22;66629;47.346;19.038;2023-03-31T12:58:51;20.42;55.93
77519;DHT22;66629;47.346;19.038;2023-03-31T13:01:18;20.09;55.10
77519;DHT22;66629;47.346;19.038;2023-03-31T13:08:58;20.17;54.58
77519;DHT22;66629;47.346;19.038;2023-03-31T13:14:06;20.83;54.37
77519;DHT22;66629;47.346;19.038;2023-03-31T13:16:37;20.75;53.64
77519;DHT22;66629;47.346;19.038;2023-03-31T13:19:02;20.47;53.82
77519;DHT22;66629;47.346;19.038;2023-03-31T13:21:28;20.51;54.12
77519;DHT22;66629;47.346;19.038;2023-03-31T13:23:59;20.33;54.21
77519;DHT22;66629;47.346;19.038;2023-03-31T13:34:30;19.81;56.11
77519;DHT22;66629;47.346;19.038;2023-03-31T13:37:32;19.76;56.83
77519;DHT22;66629;47.346;19.038;2023-03-31T14:06:36;19.54;56.62
77519;DHT22;66629;47.346;19.038;2023-03-31T14:09:08;19.51;57.25
77519;DHT22;66629;47.346;19.038;2023-03-31T14:11:35;19.44;55.65
77519;DHT22;66629;47.346;19.038;2023-03-31T14:14:23;19.59;56.77
77519;DHT22;66629;47.346;19.038;2023-03-31T14:16:52;19.64;55.98
77519;DHT22;66629;47.346;19.038;2023-03-31T14:22:01;19.75;54.77
77519;DHT22;66629;47.346;19.038;2023-03-31T14:24:49;19.79;53.76
77519;DHT22;66629;47.346;19.038;2023-03-31T14:37:22;19.54;54.29
77519;DHT22;66629;47.346;19.038;2023-03-31T14:39:50;19.40;54.04
77519;DHT22;66629;47.346;19.038;2023-03-31T14:42:21;19.24;53.56
77519;DHT22;66629;47.346;19.038;2023-03-31T14:44:55;19.24;54.48
77519;DHT22;66629;47.346;19.038;2023-03-31T14:47:22;19.24;54.72
77519;DHT22;66629;47.346;19.038;2023-03-31T14:50:02;19.27;54.55
77519;DHT22;66629;47.346;19.038;2023-03-31T14:52:30;19.16;55.24
77519;DHT22;66629;47.346;19.038;2023-03-31T14:54:57;19.10;55.75
77519;DHT22;66629;47.346;19.038;2023-03-31T14:57:28;19.10;55.71
77519;DHT22;66629;47.346;19.038;2023-03-31T14:59:55;18.95;55.63
77519;DHT22;66629;47.346;19.038;2023-03-31T15:02:37;18.89;55.70
77519;DHT22;66629;47.346;19.038;2023-03-31T15:05:14;18.78;55.09
77519;DHT22;66629;47.346;19.038;2023-03-31T15:07:44;18.67;54.18
77519;DHT22;66629;47.346;19.038;2023-03-31T15:10:17;18.67;54.64
77519;DHT22;66629;47.346;19.038;2023-03-31T15:12:43;18.54;55.02
77519;DHT22;66629;47.346;19.038;2023-03-31T15:15:10;18.47;54.60
77519;DHT22;66629;47.346;19.038;2023-03-31T15:17:41;18.44;54.67
77519;DHT22;66629;47.346;19.038;2023-03-31T15:20:27;18.39;53.86
77519;DHT22;66629;47.346;19.038;2023-03-31T15:22:56;18.26;53.37
77519;DHT22;66629;47.346;19.038;2023-03-31T15:25:27;18.21;53.87
77519;DHT22;66629;47.346;19.038;2023-03-31T15:27:57;18.10;54.26
77519;DHT22;66629;47.346;19.038;2023-03-31T15:30:25;18.06;54.49
77519;DHT22;66629;47.346;19.038;2023-03-31T15:32:52;17.98;54.77
77519;DHT22;66629;47.346;19.038;2023-03-31T15:35:30;17.84;55.69
77519;DHT22;66629;47.346;19.038;2023-03-31T15:37:58;17.71;56.25
77519;DHT22;66629;47.346;19.038;2023-03-31T15:40:29;17.62;56.61
77519;DHT22;66629;47.346;19.038;2023-03-31T15:42:58;17.57;57.25
77519;DHT22;66629;47.346;19.038;2023-03-31T15:45:50;17.40;58.66
77519;DHT22;66629;47.346;19.038;2023-03-31T15:48:37;17.26;58.36
77519;DHT22;66629;47.346;19.038;2023-03-31T15:51:19;17.14;58.44
77519;DHT22;66629;47.346;19.038;2023-03-31T15:53:49;17.10;58.49
77519;DHT22;66629;47.346;19.038;2023-03-31T15:56:41;17.08;57.72
77519;DHT22;66629;47.346;19.038;2023-03-31T15:59:23;17.04;58.02
77519;DHT22;66629;47.346;19.038;2023-03-31T16:01:49;16.98;57.98
77519;DHT22;66629;47.346;19.038;2023-03-31T16:04:16;16.92;58.05
77519;DHT22;66629;47.346;19.038;2023-03-31T16:06:51;16.84;58.02
77519;DHT22;66629;47.346;19.038;2023-03-31T16:12:32;16.59;58.41
77519;DHT22;66629;47.346;19.038;2023-03-31T16:15:20;16.49;60.07
77519;DHT22;66629;47.346;19.038;2023-03-31T16:17:56;16.45;59.59
77519;DHT22;66629;47.346;19.038;2023-03-31T16:20:26;16.26;59.74
77519;DHT22;66629;47.346;19.038;2023-03-31T16:22:57;16.14;59.59
77519;DHT22;66629;47.346;19.038;2023-03-31T16:25:25;16.07;60.18
77519;DHT22;66629;47.346;19.038;2023-03-31T16:27:57;16.03;60.60
77519;DHT22;66629;47.346;19.038;2023-03-31T16:30:40;15.90;61.43
77519;DHT22;66629;47.346;19.038;2023-03-31T16:33:08;15.85;61.79
77519;DHT22;66629;47.346;19.038;2023-03-31T16:35:41;15.80;62.46
77519;DHT22;66629;47.346;19.038;2023-03-31T16:38:09;15.69;62.94
77519;DHT22;66629;47.346;19.038;2023-03-31T16:40:37;15.65;63.44
77519;DHT22;66629;47.346;19.038;2023-03-31T16:45:32;15.56;64.23
77519;DHT22;66629;47.346;19.038;2023-03-31T16:47:57;15.51;64.44
77519;DHT22;66629;47.346;19.038;2023-03-31T16:50:23;15.51;64.87
77519;DHT22;66629;47.346;19.038;2023-03-31T16:52:48;15.42;64.63
77519;DHT22;66629;47.346;19.038;2023-03-31T16:55:14;15.38;65.11
77519;DHT22;66629;47.346;19.038;2023-03-31T16:57:39;15.30;65.03
77519;DHT22;66629;47.346;19.038;2023-03-31T17:00:06;15.23;65.10
77519;DHT22;66629;47.346;19.038;2023-03-31T17:02:31;15.20;65.17
77519;DHT22;66629;47.346;19.038;2023-03-31T17:04:57;15.13;65.43
77519;DHT22;66629;47.346;19.038;2023-03-31T17:07:22;15.08;65.56
77519;DHT22;66629;47.346;19.038;2023-03-31T17:09:47;15.03;65.46
77519;DHT22;66629;47.346;19.038;2023-03-31T17:12:13;15.00;65.31
77519;DHT22;66629;47.346;19.038;2023-03-31T17:14:38;14.93;65.27
77519;DHT22;66629;47.346;19.038;2023-03-31T17:17:04;14.89;65.69
77519;DHT22;66629;47.346;19.038;2023-03-31T17:19:29;14.86;65.14
77519;DHT22;66629;47.346;19.038;2023-03-31T17:21:55;14.80;65.67
77519;DHT22;66629;47.346;19.038;2023-03-31T17:24:26;14.79;65.14
77519;DHT22;66629;47.346;19.038;2023-03-31T17:26:51;14.76;64.68
77519;DHT22;66629;47.346;19.038;2023-03-31T17:29:17;14.73;64.94
77519;DHT22;66629;47.346;19.038;2023-03-31T17:31:42;14.68;65.11
77519;DHT22;66629;47.346;19.038;2023-03-31T17:34:08;14.67;65.30
77519;DHT22;66629;47.346;19.038;2023-03-31T17:36:33;14.61;65.75
77519;DHT22;66629;47.346;19.038;2023-03-31T17:38:59;14.61;65.14
77519;DHT22;66629;47.346;19.038;2023-03-31T17:41:26;14.58;65.23
77519;DHT22;66629;47.346;19.038;2023-03-31T17:43:53;14.54;65.73
77519;DHT22;66629;47.346;19.038;2023-03-31T17:46:18;14.54;65.49
77519;DHT22;66629;47.346;19.038;2023-03-31T17:48:44;14.52;66.17
77519;DHT22;66629;47.346;19.038;2023-03-31T17:51:12;14.54;65.64
77519;DHT22;66629;47.346;19.038;2023-03-31T17:53:39;14.49;65.93
77519;DHT22;66629;47.346;19.038;2023-03-31T17:56:06;14.46;65.86
77519;DHT22;66629;47.346;19.038;2023-03-31T17:58:31;14.46;66.01
77519;DHT22;66629;47.346;19.038;2023-03-31T18:00:58;14.48;65.87
77519;DHT22;66629;47.346;19.038;2023-03-31T18:03:24;14.44;66.04
77519;DHT22;66629;47.346;19.038;2023-03-31T18:05:51;14.40;66.17
77519;DHT22;66629;47.346;19.038;2023-03-31T18:08:17;14.40;65.90
77519;DHT22;66629;47.346;19.038;2023-03-31T18:10:42;14.37;66.38
77519;DHT22;66629;47.346;19.038;2023-03-31T18:13:08;14.31;66.61
77519;DHT22;66629;47.346;19.038;2023-03-31T18:15:34;14.31;66.45
77519;DHT22;66629;47.346;19.038;2023-03-31T18:17:59;14.27;66.59
77519;DHT22;66629;47.346;19.038;2023-03-31T18:20:25;14.28;66.53
77519;DHT22;66629;47.346;19.038;2023-03-31T18:22:51;14.26;66.84
77519;DHT22;66629;47.346;19.038;2023-03-31T18:25:17;14.20;67.31
77519;DHT22;66629;47.346;19.038;2023-03-31T18:27:42;14.20;67.45
77519;DHT22;66629;47.346;19.038;2023-03-31T18:30:08;14.17;67.09
77519;DHT22;66629;47.346;19.038;2023-03-31T18:32:34;14.13;67.38
77519;DHT22;66629;47.346;19.038;2023-03-31T18:35:00;14.10;67.45
77519;DHT22;66629;47.346;19.038;2023-03-31T18:37:25;14.09;67.82
77519;DHT22;66629;47.346;19.038;2023-03-31T18:39:51;14.06;67.97
77519;DHT22;66629;47.346;19.038;2023-03-31T18:42:17;14.02;68.02
77519;DHT22;66629;47.346;19.038;2023-03-31T18:44:49;13.99;68.22
77519;DHT22;66629;47.346;19.038;2023-03-31T18:47:14;13.93;68.32
77519;DHT22;66629;47.346;19.038;2023-03-31T18:49:40;13.93;68.49
77519;DHT22;66629;47.346;19.038;2023-03-31T18:52:07;13.92;68.62
77519;DHT22;66629;47.346;19.038;2023-03-31T18:54:32;13.89;68.75
77519;DHT22;66629;47.346;19.038;2023-03-31T18:56:57;13.86;69.41